Millenium Air

Millenium Air Since 1998



 METAR AND TAF INFORMATION
METAR FOR EGBB
ADDS - METARS form results

(0442 UTC 25 February 2021)
Data provider http://aviationweather.gov/metar/data/
 
METAR text: EGBB 250420Z 24006KT 200V270 9999 FEW024 09/06 Q1021
Conditions at: EGBB (BIRMINGHAM AIRPO, GB) observed 0420 UTC 25 February 2021
Temperature: 9.0°C (48°F)
Dewpoint: 6.0°C (43°F) [RH = 81%]
Pressure (altimeter): 30.15 inches Hg (1021.0 mb)
Winds: from the WSW (240 degrees) at 7 MPH (6 knots; 3.1 m/s)
Visibility: 6 or more miles (10+ km)
Ceiling: at least 12,000 feet AGL
Clouds: few clouds at 2400 feet AGL
Weather: no significant weather observed at this time

METAR text: EGBB 250350Z 26006KT 9999 SCT024 09/06 Q1021
Conditions at: EGBB (BIRMINGHAM AIRPO, GB) observed 0350 UTC 25 February 2021
Temperature: 9.0°C (48°F)
Dewpoint: 6.0°C (43°F) [RH = 81%]
Pressure (altimeter): 30.15 inches Hg (1021.0 mb)
Winds: from the W (260 degrees) at 7 MPH (6 knots; 3.1 m/s)
Visibility: 6 or more miles (10+ km)
Ceiling: at least 12,000 feet AGL
Clouds: scattered clouds at 2400 feet AGL
Weather: no significant weather observed at this time

Forecast for: AMD
Text: TAF AMD EGBB 250103Z 2501/2524 27007KT 9999 SCT020
Forecast period: 0100 UTC 25 February 2021 to 0000 UTC 26 February 2021
Forecast type: FROM: standard forecast or significant change
Winds: from the W (270 degrees) at 8 MPH (7 knots; 3.6 m/s)
Visibility: 6 or more miles (10+ km)
Ceiling: at least 12,000 feet AGL
Clouds: scattered clouds at 2000 feet AGL
Weather: no significant weather forecast for this period
Text: TEMPO 2501/2508 8000 -RADZ BKN012
Forecast period: 0100 to 0800 UTC 25 February 2021
Forecast type: TEMPORARY: The following changes expected for less than half the time period
Visibility: 5 miles (8 km)
Ceiling: 1200 feet AGL
Clouds: broken clouds at 1200 feet AGL
Weather: -RA -DZ  (light rain, light drizzle)
Text: PROB30
Forecast period: 0100 to 0600 UTC 25 February 2021
Forecast type: TEMPORARY: The following changes expected for less than half the time period
Visibility: missing
Ceiling: 800 feet AGL
Clouds: broken clouds at 800 feet AGL
Weather: no significant weather forecast for this period

 AIRPORT MAP

 RUNWAY INFORMATION
Runway 15 Runway length 8527 ft Runway width 151 ft
Runway elevation 305 ft Runway displaced threshold 1069 ft Runway heading 148
Runway 33 Runway length 8527 ft Runway width 151 ft
Runway elevation 328 ft Runway displaced threshold 987 ft Runway heading 328

 AIRPORT FREQUENCIES
Type APP Name APP Frequency 118.05 MHZ
Type ATIS Name ATIS Frequency 136.02 MHZ
Type GND Name GND Frequency 121.8 MHZ
Type TWR Name TWR Frequency 118.3 MHZ

 AIRPORT NEAR NAVIGATION AIDS
Type NDB Name Birmingham Frequency 406 KHZ